sensor_id;sensor_type;location;lat;lon;timestamp;P1;durP1;ratioP1;P2;durP2;ratioP2
80233;SDS011;69712;42.142;24.766;2024-01-15T00:02:04;104.85;;;45.78;;
80233;SDS011;69712;42.142;24.766;2024-01-15T00:04:31;109.10;;;46.92;;
80233;SDS011;69712;42.142;24.766;2024-01-15T00:07:06;110.10;;;45.45;;
80233;SDS011;69712;42.142;24.766;2024-01-15T00:09:33;104.97;;;47.28;;
80233;SDS011;69712;42.142;24.766;2024-01-15T00:11:59;114.18;;;50.03;;
80233;SDS011;69712;42.142;24.766;2024-01-15T00:14:25;107.13;;;47.97;;
80233;SDS011;69712;42.142;24.766;2024-01-15T00:16:51;104.22;;;47.17;;
80233;SDS011;69712;42.142;24.766;2024-01-15T00:19:20;115.68;;;49.10;;
80233;SDS011;69712;42.142;24.766;2024-01-15T00:21:46;112.82;;;50.40;;
80233;SDS011;69712;42.142;24.766;2024-01-15T00:24:12;112.15;;;51.28;;
80233;SDS011;69712;42.142;24.766;2024-01-15T00:26:39;122.55;;;51.65;;
80233;SDS011;69712;42.142;24.766;2024-01-15T00:29:06;125.53;;;51.28;;
80233;SDS011;69712;42.142;24.766;2024-01-15T00:31:33;114.88;;;50.05;;
80233;SDS011;69712;42.142;24.766;2024-01-15T00:33:58;116.82;;;51.22;;
80233;SDS011;69712;42.142;24.766;2024-01-15T00:36:24;121.55;;;51.08;;
80233;SDS011;69712;42.142;24.766;2024-01-15T00:38:50;106.05;;;49.47;;
80233;SDS011;69712;42.142;24.766;2024-01-15T00:41:16;121.57;;;49.60;;
80233;SDS011;69712;42.142;24.766;2024-01-15T00:43:44;116.93;;;49.70;;
80233;SDS011;69712;42.142;24.766;2024-01-15T00:46:10;117.38;;;49.50;;
80233;SDS011;69712;42.142;24.766;2024-01-15T00:48:36;125.90;;;49.72;;
80233;SDS011;69712;42.142;24.766;2024-01-15T00:51:01;130.35;;;51.63;;
80233;SDS011;69712;42.142;24.766;2024-01-15T00:53:28;121.88;;;49.38;;
80233;SDS011;69712;42.142;24.766;2024-01-15T00:55:54;129.52;;;51.00;;
80233;SDS011;69712;42.142;24.766;2024-01-15T00:58:19;126.55;;;50.95;;
80233;SDS011;69712;42.142;24.766;2024-01-15T01:00:45;133.45;;;51.30;;
80233;SDS011;69712;42.142;24.766;2024-01-15T01:03:11;134.85;;;52.22;;
80233;SDS011;69712;42.142;24.766;2024-01-15T01:05:37;129.15;;;51.65;;
80233;SDS011;69712;42.142;24.766;2024-01-15T01:08:02;123.03;;;50.58;;
80233;SDS011;69712;42.142;24.766;2024-01-15T01:10:28;134.88;;;53.45;;
80233;SDS011;69712;42.142;24.766;2024-01-15T01:12:54;135.38;;;52.28;;
80233;SDS011;69712;42.142;24.766;2024-01-15T01:15:20;131.65;;;48.67;;
80233;SDS011;69712;42.142;24.766;2024-01-15T01:17:46;133.25;;;50.50;;
80233;SDS011;69712;42.142;24.766;2024-01-15T01:20:12;124.75;;;52.60;;
80233;SDS011;69712;42.142;24.766;2024-01-15T01:22:38;131.70;;;52.17;;
80233;SDS011;69712;42.142;24.766;2024-01-15T01:25:04;113.47;;;48.75;;
80233;SDS011;69712;42.142;24.766;2024-01-15T01:27:30;126.30;;;51.40;;
80233;SDS011;69712;42.142;24.766;2024-01-15T01:29:56;117.40;;;49.38;;
80233;SDS011;69712;42.142;24.766;2024-01-15T01:32:22;123.00;;;50.83;;
80233;SDS011;69712;42.142;24.766;2024-01-15T01:34:48;119.68;;;48.60;;
80233;SDS011;69712;42.142;24.766;2024-01-15T01:37:14;123.32;;;49.17;;
80233;SDS011;69712;42.142;24.766;2024-01-15T01:39:43;115.38;;;49.88;;
80233;SDS011;69712;42.142;24.766;2024-01-15T01:42:09;108.35;;;46.40;;
80233;SDS011;69712;42.142;24.766;2024-01-15T01:44:35;96.43;;;40.80;;
80233;SDS011;69712;42.142;24.766;2024-01-15T01:47:01;92.00;;;39.67;;
80233;SDS011;69712;42.142;24.766;2024-01-15T01:49:28;77.97;;;35.50;;
80233;SDS011;69712;42.142;24.766;2024-01-15T01:51:57;64.15;;;31.20;;
80233;SDS011;69712;42.142;24.766;2024-01-15T01:54:26;61.30;;;31.02;;
80233;SDS011;69712;42.142;24.766;2024-01-15T01:56:54;63.58;;;31.45;;
80233;SDS011;69712;42.142;24.766;2024-01-15T01:59:20;65.78;;;30.05;;
80233;SDS011;69712;42.142;24.766;2024-01-15T02:01:48;59.95;;;28.38;;
80233;SDS011;69712;42.142;24.766;2024-01-15T02:04:14;54.03;;;26.58;;
80233;SDS011;69712;42.142;24.766;2024-01-15T02:06:41;53.42;;;27.60;;
80233;SDS011;69712;42.142;24.766;2024-01-15T02:09:07;51.63;;;25.17;;
80233;SDS011;69712;42.142;24.766;2024-01-15T02:11:34;52.25;;;26.63;;
80233;SDS011;69712;42.142;24.766;2024-01-15T02:14:00;51.83;;;25.33;;
80233;SDS011;69712;42.142;24.766;2024-01-15T02:16:26;50.80;;;25.30;;
80233;SDS011;69712;42.142;24.766;2024-01-15T02:18:52;55.60;;;26.27;;
80233;SDS011;69712;42.142;24.766;2024-01-15T02:21:17;58.03;;;26.75;;
80233;SDS011;69712;42.142;24.766;2024-01-15T02:23:43;53.22;;;26.27;;
80233;SDS011;69712;42.142;24.766;2024-01-15T02:26:09;59.05;;;29.50;;
80233;SDS011;69712;42.142;24.766;2024-01-15T02:28:35;61.03;;;27.60;;
80233;SDS011;69712;42.142;24.766;2024-01-15T02:31:01;62.05;;;28.52;;
80233;SDS011;69712;42.142;24.766;2024-01-15T02:33:27;63.58;;;26.35;;
80233;SDS011;69712;42.142;24.766;2024-01-15T02:35:52;59.63;;;28.02;;
80233;SDS011;69712;42.142;24.766;2024-01-15T02:38:18;58.83;;;26.80;;
80233;SDS011;69712;42.142;24.766;2024-01-15T02:40:44;55.90;;;27.77;;
80233;SDS011;69712;42.142;24.766;2024-01-15T02:43:11;53.88;;;25.98;;
80233;SDS011;69712;42.142;24.766;2024-01-15T02:45:38;58.95;;;25.85;;
80233;SDS011;69712;42.142;24.766;2024-01-15T02:48:04;60.67;;;25.42;;
80233;SDS011;69712;42.142;24.766;2024-01-15T02:50:30;60.58;;;25.65;;
80233;SDS011;69712;42.142;24.766;2024-01-15T02:52:56;58.60;;;25.48;;
80233;SDS011;69712;42.142;24.766;2024-01-15T02:55:22;53.80;;;24.77;;
80233;SDS011;69712;42.142;24.766;2024-01-15T02:57:48;54.90;;;25.77;;
80233;SDS011;69712;42.142;24.766;2024-01-15T03:00:14;56.78;;;25.77;;
80233;SDS011;69712;42.142;24.766;2024-01-15T03:02:40;56.88;;;26.20;;
80233;SDS011;69712;42.142;24.766;2024-01-15T03:05:08;50.20;;;25.52;;
80233;SDS011;69712;42.142;24.766;2024-01-15T03:07:35;56.58;;;25.67;;
80233;SDS011;69712;42.142;24.766;2024-01-15T03:10:01;53.53;;;25.88;;
80233;SDS011;69712;42.142;24.766;2024-01-15T03:12:27;57.00;;;27.75;;
80233;SDS011;69712;42.142;24.766;2024-01-15T03:14:53;53.72;;;25.73;;
80233;SDS011;69712;42.142;24.766;2024-01-15T03:17:19;62.65;;;26.65;;
80233;SDS011;69712;42.142;24.766;2024-01-15T03:19:45;57.45;;;26.65;;
80233;SDS011;69712;42.142;24.766;2024-01-15T03:22:10;55.40;;;26.70;;
80233;SDS011;69712;42.142;24.766;2024-01-15T03:24:36;58.05;;;27.88;;
80233;SDS011;69712;42.142;24.766;2024-01-15T03:27:02;53.92;;;25.98;;
80233;SDS011;69712;42.142;24.766;2024-01-15T03:29:28;55.35;;;26.58;;
80233;SDS011;69712;42.142;24.766;2024-01-15T03:31:54;58.40;;;26.67;;
80233;SDS011;69712;42.142;24.766;2024-01-15T03:34:19;65.72;;;28.52;;
80233;SDS011;69712;42.142;24.766;2024-01-15T03:36:45;56.85;;;27.17;;
80233;SDS011;69712;42.142;24.766;2024-01-15T03:39:11;63.78;;;30.00;;
80233;SDS011;69712;42.142;24.766;2024-01-15T03:41:37;59.88;;;27.67;;
80233;SDS011;69712;42.142;24.766;2024-01-15T03:44:03;64.15;;;29.45;;
80233;SDS011;69712;42.142;24.766;2024-01-15T03:46:29;61.45;;;29.73;;
80233;SDS011;69712;42.142;24.766;2024-01-15T03:48:54;64.13;;;29.50;;
80233;SDS011;69712;42.142;24.766;2024-01-15T03:51:20;65.30;;;29.20;;
80233;SDS011;69712;42.142;24.766;2024-01-15T03:53:46;67.95;;;30.38;;
80233;SDS011;69712;42.142;24.766;2024-01-15T03:56:12;59.83;;;29.45;;
80233;SDS011;69712;42.142;24.766;2024-01-15T03:58:38;63.60;;;30.20;;
80233;SDS011;69712;42.142;24.766;2024-01-15T04:01:07;73.28;;;33.47;;
80233;SDS011;69712;42.142;24.766;2024-01-15T04:03:34;61.10;;;30.30;;
80233;SDS011;69712;42.142;24.766;2024-01-15T04:06:00;62.20;;;28.17;;
80233;SDS011;69712;42.142;24.766;2024-01-15T04:08:26;57.05;;;26.23;;
80233;SDS011;69712;42.142;24.766;2024-01-15T04:10:52;60.15;;;28.10;;
80233;SDS011;69712;42.142;24.766;2024-01-15T04:13:18;57.83;;;26.75;;
80233;SDS011;69712;42.142;24.766;2024-01-15T04:15:43;53.95;;;25.38;;
80233;SDS011;69712;42.142;24.766;2024-01-15T04:18:09;51.13;;;26.85;;
80233;SDS011;69712;42.142;24.766;2024-01-15T04:20:35;52.60;;;26.17;;
80233;SDS011;69712;42.142;24.766;2024-01-15T04:23:01;56.35;;;27.98;;
80233;SDS011;69712;42.142;24.766;2024-01-15T04:25:27;59.55;;;29.98;;
80233;SDS011;69712;42.142;24.766;2024-01-15T04:27:52;58.13;;;27.67;;
80233;SDS011;69712;42.142;24.766;2024-01-15T04:30:18;59.70;;;27.65;;
80233;SDS011;69712;42.142;24.766;2024-01-15T04:32:44;55.30;;;24.92;;
80233;SDS011;69712;42.142;24.766;2024-01-15T04:35:10;50.92;;;25.80;;
80233;SDS011;69712;42.142;24.766;2024-01-15T04:37:36;49.33;;;25.10;;
80233;SDS011;69712;42.142;24.766;2024-01-15T04:40:02;53.22;;;25.02;;
80233;SDS011;69712;42.142;24.766;2024-01-15T04:42:29;58.88;;;26.65;;
80233;SDS011;69712;42.142;24.766;2024-01-15T04:44:54;58.17;;;26.58;;
80233;SDS011;69712;42.142;24.766;2024-01-15T04:47:20;56.03;;;26.38;;
80233;SDS011;69712;42.142;24.766;2024-01-15T04:49:46;53.85;;;26.42;;
80233;SDS011;69712;42.142;24.766;2024-01-15T04:52:13;58.28;;;27.58;;
80233;SDS011;69712;42.142;24.766;2024-01-15T04:54:38;56.33;;;27.13;;
80233;SDS011;69712;42.142;24.766;2024-01-15T04:57:04;62.45;;;28.85;;
80233;SDS011;69712;42.142;24.766;2024-01-15T04:59:30;51.30;;;26.50;;
80233;SDS011;69712;42.142;24.766;2024-01-15T05:01:56;57.80;;;27.08;;
80233;SDS011;69712;42.142;24.766;2024-01-15T05:04:21;53.88;;;26.88;;
80233;SDS011;69712;42.142;24.766;2024-01-15T05:06:47;57.85;;;29.10;;
80233;SDS011;69712;42.142;24.766;2024-01-15T05:09:13;62.50;;;30.38;;
80233;SDS011;69712;42.142;24.766;2024-01-15T05:11:39;62.20;;;29.65;;
80233;SDS011;69712;42.142;24.766;2024-01-15T05:14:05;70.00;;;30.13;;
80233;SDS011;69712;42.142;24.766;2024-01-15T05:16:31;68.43;;;32.85;;
80233;SDS011;69712;42.142;24.766;2024-01-15T05:18:56;71.45;;;33.30;;
80233;SDS011;69712;42.142;24.766;2024-01-15T05:21:22;66.03;;;32.38;;
80233;SDS011;69712;42.142;24.766;2024-01-15T05:23:48;66.68;;;31.25;;
80233;SDS011;69712;42.142;24.766;2024-01-15T05:26:14;65.35;;;32.25;;
80233;SDS011;69712;42.142;24.766;2024-01-15T05:28:42;68.43;;;32.45;;
80233;SDS011;69712;42.142;24.766;2024-01-15T05:31:08;73.43;;;34.38;;
80233;SDS011;69712;42.142;24.766;2024-01-15T05:33:34;72.03;;;34.47;;
80233;SDS011;69712;42.142;24.766;2024-01-15T05:36:00;69.05;;;33.90;;
80233;SDS011;69712;42.142;24.766;2024-01-15T05:38:27;66.53;;;32.45;;
80233;SDS011;69712;42.142;24.766;2024-01-15T05:40:52;72.45;;;34.38;;
80233;SDS011;69712;42.142;24.766;2024-01-15T05:43:18;72.07;;;32.95;;
80233;SDS011;69712;42.142;24.766;2024-01-15T05:45:44;70.30;;;33.30;;
80233;SDS011;69712;42.142;24.766;2024-01-15T05:48:11;74.78;;;36.40;;
80233;SDS011;69712;42.142;24.766;2024-01-15T05:50:37;79.50;;;38.92;;
80233;SDS011;69712;42.142;24.766;2024-01-15T05:53:03;96.97;;;44.78;;
80233;SDS011;69712;42.142;24.766;2024-01-15T05:55:29;84.20;;;41.08;;
80233;SDS011;69712;42.142;24.766;2024-01-15T05:57:55;90.80;;;42.55;;
80233;SDS011;69712;42.142;24.766;2024-01-15T06:00:21;83.95;;;40.58;;
80233;SDS011;69712;42.142;24.766;2024-01-15T06:02:46;67.25;;;34.28;;
80233;SDS011;69712;42.142;24.766;2024-01-15T06:05:12;63.92;;;30.02;;
80233;SDS011;69712;42.142;24.766;2024-01-15T06:07:38;76.45;;;34.05;;
80233;SDS011;69712;42.142;24.766;2024-01-15T06:10:04;67.93;;;33.05;;
80233;SDS011;69712;42.142;24.766;2024-01-15T06:12:30;69.13;;;33.80;;
80233;SDS011;69712;42.142;24.766;2024-01-15T06:14:57;75.07;;;35.75;;
80233;SDS011;69712;42.142;24.766;2024-01-15T06:17:23;74.28;;;35.22;;
80233;SDS011;69712;42.142;24.766;2024-01-15T06:19:49;83.93;;;41.35;;
80233;SDS011;69712;42.142;24.766;2024-01-15T06:22:15;87.05;;;39.83;;
80233;SDS011;69712;42.142;24.766;2024-01-15T06:24:41;75.95;;;37.05;;
80233;SDS011;69712;42.142;24.766;2024-01-15T06:27:06;79.75;;;37.13;;
80233;SDS011;69712;42.142;24.766;2024-01-15T06:29:32;73.13;;;35.53;;
80233;SDS011;69712;42.142;24.766;2024-01-15T06:31:58;68.72;;;35.80;;
80233;SDS011;69712;42.142;24.766;2024-01-15T06:34:24;70.70;;;34.20;;
80233;SDS011;69712;42.142;24.766;2024-01-15T06:36:50;63.85;;;34.40;;
80233;SDS011;69712;42.142;24.766;2024-01-15T06:39:15;66.50;;;33.17;;
80233;SDS011;69712;42.142;24.766;2024-01-15T06:41:41;65.00;;;32.58;;
80233;SDS011;69712;42.142;24.766;2024-01-15T06:44:11;63.95;;;32.65;;
80233;SDS011;69712;42.142;24.766;2024-01-15T06:46:47;66.38;;;31.85;;
80233;SDS011;69712;42.142;24.766;2024-01-15T06:49:13;64.95;;;30.77;;
80233;SDS011;69712;42.142;24.766;2024-01-15T06:51:39;59.25;;;31.20;;
80233;SDS011;69712;42.142;24.766;2024-01-15T06:54:04;64.90;;;32.03;;
80233;SDS011;69712;42.142;24.766;2024-01-15T06:56:31;65.93;;;32.55;;
80233;SDS011;69712;42.142;24.766;2024-01-15T06:58:57;59.88;;;31.15;;
80233;SDS011;69712;42.142;24.766;2024-01-15T07:01:23;69.50;;;31.92;;
80233;SDS011;69712;42.142;24.766;2024-01-15T07:03:49;66.22;;;31.52;;
80233;SDS011;69712;42.142;24.766;2024-01-15T07:06:15;72.25;;;34.90;;
80233;SDS011;69712;42.142;24.766;2024-01-15T07:08:45;63.13;;;30.35;;
80233;SDS011;69712;42.142;24.766;2024-01-15T07:11:11;57.25;;;28.13;;
80233;SDS011;69712;42.142;24.766;2024-01-15T07:13:37;60.38;;;30.92;;
80233;SDS011;69712;42.142;24.766;2024-01-15T07:16:03;59.00;;;30.08;;
80233;SDS011;69712;42.142;24.766;2024-01-15T07:18:29;59.90;;;31.45;;
80233;SDS011;69712;42.142;24.766;2024-01-15T07:20:55;59.33;;;30.77;;
80233;SDS011;69712;42.142;24.766;2024-01-15T07:23:21;67.60;;;32.85;;
80233;SDS011;69712;42.142;24.766;2024-01-15T07:25:47;68.25;;;32.70;;
80233;SDS011;69712;42.142;24.766;2024-01-15T07:28:12;61.47;;;31.33;;
80233;SDS011;69712;42.142;24.766;2024-01-15T07:30:38;64.47;;;32.80;;
80233;SDS011;69712;42.142;24.766;2024-01-15T07:33:04;67.38;;;32.50;;
80233;SDS011;69712;42.142;24.766;2024-01-15T07:35:30;62.03;;;30.67;;
80233;SDS011;69712;42.142;24.766;2024-01-15T07:37:57;58.20;;;31.85;;
80233;SDS011;69712;42.142;24.766;2024-01-15T07:40:22;60.38;;;31.58;;
80233;SDS011;69712;42.142;24.766;2024-01-15T07:42:49;64.72;;;31.33;;
80233;SDS011;69712;42.142;24.766;2024-01-15T07:45:15;64.13;;;33.13;;
80233;SDS011;69712;42.142;24.766;2024-01-15T07:47:41;69.80;;;32.80;;
80233;SDS011;69712;42.142;24.766;2024-01-15T07:50:07;64.60;;;30.40;;
80233;SDS011;69712;42.142;24.766;2024-01-15T07:52:33;62.80;;;31.02;;
80233;SDS011;69712;42.142;24.766;2024-01-15T07:54:58;61.40;;;30.55;;
80233;SDS011;69712;42.142;24.766;2024-01-15T07:57:25;65.47;;;29.90;;
80233;SDS011;69712;42.142;24.766;2024-01-15T07:59:51;72.57;;;37.55;;
80233;SDS011;69712;42.142;24.766;2024-01-15T08:02:17;63.03;;;32.20;;
80233;SDS011;69712;42.142;24.766;2024-01-15T08:04:43;62.45;;;31.73;;
80233;SDS011;69712;42.142;24.766;2024-01-15T08:07:10;57.47;;;30.48;;
80233;SDS011;69712;42.142;24.766;2024-01-15T08:09:35;62.10;;;33.50;;
80233;SDS011;69712;42.142;24.766;2024-01-15T08:12:01;56.42;;;29.33;;
80233;SDS011;69712;42.142;24.766;2024-01-15T08:14:27;51.53;;;28.63;;
80233;SDS011;69712;42.142;24.766;2024-01-15T08:16:53;47.60;;;26.40;;
80233;SDS011;69712;42.142;24.766;2024-01-15T08:19:19;56.35;;;28.75;;
80233;SDS011;69712;42.142;24.766;2024-01-15T08:21:47;53.40;;;29.52;;
80233;SDS011;69712;42.142;24.766;2024-01-15T08:24:14;56.42;;;33.10;;
80233;SDS011;69712;42.142;24.766;2024-01-15T08:26:40;61.92;;;33.90;;
80233;SDS011;69712;42.142;24.766;2024-01-15T08:29:06;57.67;;;33.15;;
80233;SDS011;69712;42.142;24.766;2024-01-15T08:31:32;57.50;;;30.90;;
80233;SDS011;69712;42.142;24.766;2024-01-15T08:33:57;54.40;;;29.98;;
80233;SDS011;69712;42.142;24.766;2024-01-15T08:36:24;51.28;;;28.88;;
80233;SDS011;69712;42.142;24.766;2024-01-15T08:38:50;51.28;;;28.20;;
80233;SDS011;69712;42.142;24.766;2024-01-15T08:41:16;49.17;;;28.15;;
80233;SDS011;69712;42.142;24.766;2024-01-15T08:43:42;50.58;;;28.45;;
80233;SDS011;69712;42.142;24.766;2024-01-15T08:46:07;52.30;;;29.88;;
80233;SDS011;69712;42.142;24.766;2024-01-15T08:48:33;55.60;;;29.58;;
80233;SDS011;69712;42.142;24.766;2024-01-15T08:50:59;53.60;;;30.73;;
80233;SDS011;69712;42.142;24.766;2024-01-15T08:53:25;53.70;;;30.35;;
80233;SDS011;69712;42.142;24.766;2024-01-15T08:55:51;49.97;;;29.55;;
80233;SDS011;69712;42.142;24.766;2024-01-15T08:58:17;51.80;;;28.75;;
80233;SDS011;69712;42.142;24.766;2024-01-15T09:00:42;54.17;;;31.15;;
80233;SDS011;69712;42.142;24.766;2024-01-15T09:03:08;52.35;;;30.33;;
80233;SDS011;69712;42.142;24.766;2024-01-15T09:05:34;52.83;;;30.35;;
80233;SDS011;69712;42.142;24.766;2024-01-15T09:08:00;53.72;;;29.83;;
80233;SDS011;69712;42.142;24.766;2024-01-15T09:10:26;56.83;;;30.80;;
80233;SDS011;69712;42.142;24.766;2024-01-15T09:12:52;54.22;;;29.58;;
80233;SDS011;69712;42.142;24.766;2024-01-15T09:15:18;53.55;;;27.92;;
80233;SDS011;69712;42.142;24.766;2024-01-15T09:17:45;55.97;;;30.60;;
80233;SDS011;69712;42.142;24.766;2024-01-15T09:20:11;58.88;;;32.00;;
80233;SDS011;69712;42.142;24.766;2024-01-15T09:22:40;60.33;;;32.55;;
80233;SDS011;69712;42.142;24.766;2024-01-15T09:25:07;61.75;;;33.10;;
80233;SDS011;69712;42.142;24.766;2024-01-15T09:27:35;62.05;;;33.22;;
80233;SDS011;69712;42.142;24.766;2024-01-15T09:30:01;58.33;;;32.38;;
80233;SDS011;69712;42.142;24.766;2024-01-15T09:32:27;60.13;;;33.33;;
80233;SDS011;69712;42.142;24.766;2024-01-15T09:34:53;62.25;;;32.92;;
80233;SDS011;69712;42.142;24.766;2024-01-15T09:37:20;62.95;;;32.50;;
80233;SDS011;69712;42.142;24.766;2024-01-15T09:39:45;59.80;;;32.45;;
80233;SDS011;69712;42.142;24.766;2024-01-15T09:42:13;59.33;;;31.35;;
80233;SDS011;69712;42.142;24.766;2024-01-15T09:44:40;56.55;;;29.33;;
80233;SDS011;69712;42.142;24.766;2024-01-15T09:47:06;55.72;;;31.63;;
80233;SDS011;69712;42.142;24.766;2024-01-15T09:49:32;59.28;;;31.17;;
80233;SDS011;69712;42.142;24.766;2024-01-15T09:51:58;51.78;;;29.40;;
80233;SDS011;69712;42.142;24.766;2024-01-15T09:54:26;55.13;;;29.58;;
80233;SDS011;69712;42.142;24.766;2024-01-15T09:56:52;54.10;;;28.95;;
80233;SDS011;69712;42.142;24.766;2024-01-15T09:59:20;56.58;;;28.98;;
80233;SDS011;69712;42.142;24.766;2024-01-15T10:01:47;52.97;;;28.00;;
80233;SDS011;69712;42.142;24.766;2024-01-15T10:04:15;49.05;;;26.55;;
80233;SDS011;69712;42.142;24.766;2024-01-15T10:06:51;55.83;;;26.80;;
80233;SDS011;69712;42.142;24.766;2024-01-15T10:09:17;48.35;;;27.48;;
80233;SDS011;69712;42.142;24.766;2024-01-15T10:11:44;48.22;;;26.83;;
80233;SDS011;69712;42.142;24.766;2024-01-15T10:14:10;53.78;;;30.98;;
80233;SDS011;69712;42.142;24.766;2024-01-15T10:16:40;49.35;;;27.63;;
80233;SDS011;69712;42.142;24.766;2024-01-15T10:19:06;46.65;;;27.00;;
80233;SDS011;69712;42.142;24.766;2024-01-15T10:21:33;53.10;;;26.92;;
80233;SDS011;69712;42.142;24.766;2024-01-15T10:24:02;47.80;;;28.52;;
80233;SDS011;69712;42.142;24.766;2024-01-15T10:26:29;51.10;;;27.77;;
80233;SDS011;69712;42.142;24.766;2024-01-15T10:28:55;43.42;;;25.02;;
80233;SDS011;69712;42.142;24.766;2024-01-15T10:31:23;40.13;;;24.25;;
80233;SDS011;69712;42.142;24.766;2024-01-15T10:33:50;45.00;;;25.70;;
80233;SDS011;69712;42.142;24.766;2024-01-15T10:36:19;46.03;;;25.35;;
80233;SDS011;69712;42.142;24.766;2024-01-15T10:38:49;46.70;;;24.83;;
80233;SDS011;69712;42.142;24.766;2024-01-15T10:41:14;43.67;;;24.88;;
80233;SDS011;69712;42.142;24.766;2024-01-15T10:43:41;42.60;;;25.98;;
80233;SDS011;69712;42.142;24.766;2024-01-15T10:46:06;43.20;;;25.67;;
80233;SDS011;69712;42.142;24.766;2024-01-15T10:48:33;43.08;;;25.73;;
80233;SDS011;69712;42.142;24.766;2024-01-15T10:51:01;48.45;;;27.15;;
80233;SDS011;69712;42.142;24.766;2024-01-15T10:53:35;48.75;;;25.77;;
80233;SDS011;69712;42.142;24.766;2024-01-15T10:56:05;44.47;;;26.27;;
80233;SDS011;69712;42.142;24.766;2024-01-15T10:58:32;51.65;;;27.90;;
80233;SDS011;69712;42.142;24.766;2024-01-15T11:01:00;48.88;;;26.98;;
80233;SDS011;69712;42.142;24.766;2024-01-15T11:03:26;45.40;;;25.92;;
80233;SDS011;69712;42.142;24.766;2024-01-15T11:05:53;48.25;;;29.05;;
80233;SDS011;69712;42.142;24.766;2024-01-15T11:08:19;48.03;;;26.45;;
80233;SDS011;69712;42.142;24.766;2024-01-15T11:10:47;42.80;;;24.88;;
80233;SDS011;69712;42.142;24.766;2024-01-15T11:13:39;42.85;;;23.40;;
80233;SDS011;69712;42.142;24.766;2024-01-15T11:16:07;41.08;;;25.75;;
80233;SDS011;69712;42.142;24.766;2024-01-15T11:18:40;45.97;;;26.27;;
80233;SDS011;69712;42.142;24.766;2024-01-15T11:21:26;56.10;;;28.27;;
80233;SDS011;69712;42.142;24.766;2024-01-15T11:23:56;46.20;;;29.35;;
80233;SDS011;69712;42.142;24.766;2024-01-15T11:29:46;45.17;;;27.27;;
80233;SDS011;69712;42.142;24.766;2024-01-15T11:34:49;48.38;;;28.73;;
80233;SDS011;69712;42.142;24.766;2024-01-15T11:37:18;44.35;;;26.60;;
80233;SDS011;69712;42.142;24.766;2024-01-15T11:39:44;42.88;;;26.25;;
80233;SDS011;69712;42.142;24.766;2024-01-15T11:42:12;45.92;;;25.88;;
80233;SDS011;69712;42.142;24.766;2024-01-15T11:44:38;44.08;;;25.55;;
80233;SDS011;69712;42.142;24.766;2024-01-15T11:47:08;50.30;;;26.85;;
80233;SDS011;69712;42.142;24.766;2024-01-15T11:49:45;45.60;;;27.10;;
80233;SDS011;69712;42.142;24.766;2024-01-15T11:52:24;47.03;;;26.35;;
80233;SDS011;69712;42.142;24.766;2024-01-15T11:57:46;45.72;;;27.25;;
80233;SDS011;69712;42.142;24.766;2024-01-15T12:00:12;37.40;;;21.52;;
80233;SDS011;69712;42.142;24.766;2024-01-15T12:02:40;37.95;;;20.80;;
80233;SDS011;69712;42.142;24.766;2024-01-15T12:05:07;32.80;;;21.40;;
80233;SDS011;69712;42.142;24.766;2024-01-15T12:07:33;39.88;;;23.08;;
80233;SDS011;69712;42.142;24.766;2024-01-15T12:10:00;41.53;;;23.55;;
80233;SDS011;69712;42.142;24.766;2024-01-15T12:15:10;40.83;;;24.23;;
80233;SDS011;69712;42.142;24.766;2024-01-15T12:17:36;40.28;;;23.30;;
80233;SDS011;69712;42.142;24.766;2024-01-15T12:20:04;43.72;;;25.02;;
80233;SDS011;69712;42.142;24.766;2024-01-15T12:22:32;51.67;;;28.77;;
80233;SDS011;69712;42.142;24.766;2024-01-15T12:24:58;52.53;;;29.17;;
80233;SDS011;69712;42.142;24.766;2024-01-15T12:27:24;52.00;;;31.85;;
80233;SDS011;69712;42.142;24.766;2024-01-15T12:29:52;57.17;;;33.13;;
80233;SDS011;69712;42.142;24.766;2024-01-15T12:32:18;63.15;;;37.97;;
80233;SDS011;69712;42.142;24.766;2024-01-15T12:34:46;65.50;;;38.78;;
80233;SDS011;69712;42.142;24.766;2024-01-15T12:37:13;67.13;;;37.20;;
80233;SDS011;69712;42.142;24.766;2024-01-15T12:39:42;65.25;;;37.80;;
80233;SDS011;69712;42.142;24.766;2024-01-15T12:42:09;70.95;;;38.42;;
80233;SDS011;69712;42.142;24.766;2024-01-15T12:44:35;65.80;;;35.20;;
80233;SDS011;69712;42.142;24.766;2024-01-15T12:47:03;61.95;;;35.33;;
80233;SDS011;69712;42.142;24.766;2024-01-15T12:49:29;65.32;;;35.78;;
80233;SDS011;69712;42.142;24.766;2024-01-15T12:51:59;63.83;;;36.65;;
80233;SDS011;69712;42.142;24.766;2024-01-15T12:54:25;64.93;;;36.63;;
80233;SDS011;69712;42.142;24.766;2024-01-15T12:56:51;62.47;;;35.22;;
80233;SDS011;69712;42.142;24.766;2024-01-15T12:59:18;64.40;;;35.70;;
80233;SDS011;69712;42.142;24.766;2024-01-15T13:01:44;62.88;;;35.03;;
80233;SDS011;69712;42.142;24.766;2024-01-15T13:04:11;62.75;;;34.72;;
80233;SDS011;69712;42.142;24.766;2024-01-15T13:06:46;61.42;;;33.80;;
80233;SDS011;69712;42.142;24.766;2024-01-15T13:09:12;56.33;;;32.53;;
80233;SDS011;69712;42.142;24.766;2024-01-15T13:11:37;65.40;;;33.38;;
80233;SDS011;69712;42.142;24.766;2024-01-15T13:14:03;62.15;;;33.78;;
80233;SDS011;69712;42.142;24.766;2024-01-15T13:16:31;62.70;;;34.97;;
80233;SDS011;69712;42.142;24.766;2024-01-15T13:19:02;60.50;;;36.10;;
80233;SDS011;69712;42.142;24.766;2024-01-15T13:21:29;64.57;;;34.80;;
80233;SDS011;69712;42.142;24.766;2024-01-15T13:23:55;68.78;;;36.33;;
80233;SDS011;69712;42.142;24.766;2024-01-15T13:26:21;68.53;;;36.33;;
80233;SDS011;69712;42.142;24.766;2024-01-15T13:28:47;64.75;;;38.22;;
80233;SDS011;69712;42.142;24.766;2024-01-15T13:31:13;69.03;;;37.65;;
80233;SDS011;69712;42.142;24.766;2024-01-15T13:33:39;66.78;;;36.80;;
80233;SDS011;69712;42.142;24.766;2024-01-15T13:36:05;67.18;;;36.42;;
80233;SDS011;69712;42.142;24.766;2024-01-15T13:38:36;63.03;;;35.88;;
80233;SDS011;69712;42.142;24.766;2024-01-15T13:41:04;67.85;;;36.25;;
80233;SDS011;69712;42.142;24.766;2024-01-15T13:43:31;68.05;;;36.10;;
80233;SDS011;69712;42.142;24.766;2024-01-15T13:45:57;67.28;;;35.10;;
80233;SDS011;69712;42.142;24.766;2024-01-15T13:48:24;63.00;;;35.85;;
80233;SDS011;69712;42.142;24.766;2024-01-15T13:50:49;66.97;;;36.53;;
80233;SDS011;69712;42.142;24.766;2024-01-15T13:53:16;69.90;;;37.08;;
80233;SDS011;69712;42.142;24.766;2024-01-15T13:55:41;70.03;;;38.47;;
80233;SDS011;69712;42.142;24.766;2024-01-15T13:58:07;74.60;;;37.67;;
80233;SDS011;69712;42.142;24.766;2024-01-15T14:00:33;76.43;;;40.35;;
80233;SDS011;69712;42.142;24.766;2024-01-15T14:02:59;73.45;;;38.35;;
80233;SDS011;69712;42.142;24.766;2024-01-15T14:05:25;72.15;;;38.88;;
80233;SDS011;69712;42.142;24.766;2024-01-15T14:07:51;65.63;;;37.28;;
80233;SDS011;69712;42.142;24.766;2024-01-15T14:10:17;66.68;;;34.97;;
80233;SDS011;69712;42.142;24.766;2024-01-15T14:12:42;63.50;;;34.97;;
80233;SDS011;69712;42.142;24.766;2024-01-15T14:15:08;63.00;;;33.65;;
80233;SDS011;69712;42.142;24.766;2024-01-15T14:17:34;65.10;;;35.65;;